Time;durP1;ratioP1;P1;durP2;ratioP2;P2;SDS_P1;SDS_P2;PMS_P1;PMS_P2;Temp;Humidity;BMP_temperature;BMP_pressure;BME280_temperature;BME280_humidity;BME280_pressure;Samples;Min_cycle;Max_cycle;Signal;HPM_P1;HPM_P2
2022/09/04 00:00:23;;;;;;;67.78;9.40;;;;;;;20.10;100.00;97939.56;4971301;28;20041;-53
2022/09/04 00:03:22;;;;;;;43.60;8.20;;;;;;;20.52;100.00;97934.38;4974064;28;20031;-54
2022/09/04 00:05:54;;;;;;;36.15;8.25;;;;;;;20.50;100.00;97934.50;4972982;28;20062;-53
2022/09/04 00:08:51;;;;;;;128.15;11.48;;;;;;;19.73;100.00;97943.38;4972798;28;20030;-54
2022/09/04 00:11:44;;;;;;;218.63;12.82;;;;;;;20.13;100.00;97939.34;4951912;28;20047;-53
2022/09/04 00:14:34;;;;;;;60.45;8.68;;;;;;;20.49;100.00;97935.47;4973329;28;20117;-55
2022/09/04 00:17:03;;;;;;;30.83;6.40;;;;;;;20.91;100.00;97940.81;4973307;28;20126;-53
2022/09/04 00:19:58;;;;;;;133.52;11.18;;;;;;;20.73;100.00;97937.06;4971720;28;20037;-54
2022/09/04 00:22:53;;;;;;;196.30;11.10;;;;;;;19.27;100.00;97946.94;4973036;28;20057;-54
2022/09/04 00:25:19;;;;;;;115.90;11.05;;;;;;;20.08;100.00;97952.09;4972838;28;20054;-54
2022/09/04 00:27:48;;;;;;;102.82;8.93;;;;;;;20.72;100.00;97940.72;4971125;28;20073;-54
2022/09/04 00:30:19;;;;;;;121.35;9.57;;;;;;;20.43;100.00;97941.28;4971300;28;20440;-53
2022/09/04 00:33:04;;;;;;;65.85;8.80;;;;;;;20.44;100.00;97947.41;4972583;28;20416;-54
2022/09/04 00:35:31;;;;;;;77.25;8.02;;;;;;;20.67;100.00;97949.03;4971643;28;20394;-53
2022/09/04 00:38:02;;;;;;;116.97;10.18;;;;;;;20.27;100.00;97956.75;4973572;28;20031;-54
2022/09/04 00:40:51;;;;;;;171.57;11.52;;;;;;;20.50;100.00;97953.03;4970835;28;20038;-53
2022/09/04 00:44:00;;;;;;;172.15;11.77;;;;;;;20.47;100.00;97953.28;4971068;28;20061;-54
2022/09/04 00:46:39;;;;;;;69.07;8.25;;;;;;;20.72;100.00;97948.66;4971729;28;20042;-54
2022/09/04 00:49:35;;;;;;;84.28;10.48;;;;;;;20.31;100.00;97952.88;4971405;28;20653;-54
2022/09/04 00:52:24;;;;;;;204.63;11.60;;;;;;;20.26;100.00;97957.72;4964491;28;20054;-54
2022/09/04 00:55:11;;;;;;;94.97;9.02;;;;;;;20.93;100.00;97959.25;4971847;28;20092;-54
2022/09/04 00:58:05;;;;;;;57.95;8.73;;;;;;;20.75;100.00;97966.94;4971738;28;20046;-53
2022/09/04 01:00:31;;;;;;;47.38;9.25;;;;;;;20.29;100.00;97976.00;4969599;28;20054;-53
2022/09/04 01:02:59;;;;;;;102.80;10.75;;;;;;;20.44;100.00;97969.47;4970652;28;20449;-53
2022/09/04 01:05:37;;;;;;;159.63;11.40;;;;;;;20.62;100.00;97976.88;4970674;28;20061;-54
2022/09/04 01:08:21;;;;;;;102.85;10.25;;;;;;;19.38;100.00;97983.16;4973255;28;20026;-54
2022/09/04 01:10:59;;;;;;;81.63;9.18;;;;;;;20.81;100.00;97987.66;4972137;28;20034;-54
2022/09/04 01:13:35;;;;;;;89.85;10.40;;;;;;;20.14;100.00;97989.50;4972596;28;20026;-53
2022/09/04 01:16:18;;;;;;;78.18;9.88;;;;;;;20.07;100.00;97993.63;4971294;28;20121;-54
2022/09/04 01:19:09;;;;;;;142.07;11.10;;;;;;;19.73;100.00;97990.16;4971840;28;20023;-54
2022/09/04 01:21:54;;;;;;;53.40;9.10;;;;;;;20.01;100.00;98004.69;4970055;28;20042;-53
2022/09/04 01:24:31;;;;;;;381.77;14.48;;;;;;;20.04;100.00;97991.22;4969928;28;20030;-54
2022/09/04 01:27:33;;;;;;;248.25;11.85;;;;;;;20.24;100.00;97992.25;4969699;28;20050;-53
2022/09/04 01:30:15;;;;;;;118.10;10.80;;;;;;;19.43;100.00;97997.69;4955042;28;20649;-53
2022/09/04 01:33:11;;;;;;;134.68;11.40;;;;;;;19.47;100.00;98000.13;4971630;28;20658;-53
2022/09/04 01:35:54;;;;;;;163.85;12.05;;;;;;;19.69;100.00;98000.13;4969304;28;20136;-53
2022/09/04 01:38:41;;;;;;;207.77;13.50;;;;;;;19.11;100.00;97999.31;4970147;28;20031;-54
2022/09/04 01:41:16;;;;;;;153.95;13.18;;;;;;;19.11;100.00;98007.25;4969275;28;20122;-54
2022/09/04 01:43:42;;;;;;;319.70;14.50;;;;;;;19.04;100.00;98007.72;4970607;28;20030;-55
2022/09/04 01:46:13;;;;;;;222.90;14.30;;;;;;;19.44;100.00;98007.28;4968866;28;20705;-54
2022/09/04 01:48:51;;;;;;;140.60;11.65;;;;;;;19.57;100.00;97996.59;4970382;28;20030;-54
2022/09/04 01:51:36;;;;;;;131.93;10.65;;;;;;;19.70;100.00;98001.78;4969787;28;20455;-53
2022/09/04 01:54:21;;;;;;;192.55;13.05;;;;;;;19.51;100.00;98004.19;4969581;28;20030;-53
2022/09/04 01:57:11;;;;;;;63.88;10.02;;;;;;;19.58;100.00;97992.19;4970872;28;20042;-53
2022/09/04 01:59:56;;;;;;;77.60;10.15;;;;;;;19.84;100.00;98004.22;4970314;28;20045;-53
2022/09/04 02:02:26;;;;;;;77.43;10.13;;;;;;;18.63;100.00;98005.50;4970602;28;20035;-52
2022/09/04 02:05:10;;;;;;;71.50;9.85;;;;;;;18.91;100.00;98014.03;4970066;28;20421;-52
2022/09/04 02:08:03;;;;;;;90.32;9.82;;;;;;;19.54;100.00;98001.31;4968112;28;20050;-52
2022/09/04 02:10:37;;;;;;;;;;;;;;;19.16;100.00;97998.00;4969444;28;20039;-53
2022/09/04 02:13:16;;;;;;;48.70;8.70;;;;;;;19.50;100.00;97994.56;4968855;28;20552;-54
2022/09/04 02:15:59;;;;;;;36.05;7.45;;;;;;;19.77;100.00;97997.72;4969374;28;20042;-53
2022/09/04 02:18:47;;;;;;;55.83;9.50;;;;;;;19.19;100.00;98000.44;4969709;28;20037;-51
2022/09/04 02:21:23;;;;;;;61.92;9.40;;;;;;;19.23;100.00;97990.47;4968763;28;20060;-54
2022/09/04 02:24:04;;;;;;;44.50;7.60;;;;;;;19.80;100.00;97986.91;4968666;28;20027;-53
2022/09/04 02:26:38;;;;;;;50.20;8.88;;;;;;;19.38;100.00;97991.06;4969506;28;20137;-52
2022/09/04 02:29:42;;;;;;;57.72;8.50;;;;;;;19.45;100.00;97987.84;4970954;28;20026;-52
2022/09/04 02:32:17;;;;;;;65.00;9.43;;;;;;;19.32;100.00;97992.41;4961083;28;20050;-52
2022/09/04 02:34:49;;;;;;;90.95;9.32;;;;;;;19.57;100.00;98001.06;4979002;28;20026;-53
2022/09/04 02:37:20;;;;;;;;;;;;;;;19.44;100.00;98002.00;4969982;28;20138;-52
2022/09/04 02:40:10;;;;;;;97.22;10.57;;;;;;;19.34;100.00;97997.56;4968218;28;20000;-52
2022/09/04 02:43:01;;;;;;;66.93;9.82;;;;;;;19.21;100.00;98009.06;4969237;28;20373;-52
2022/09/04 02:45:58;;;;;;;80.38;10.63;;;;;;;18.67;100.00;98013.09;4967987;28;20656;-51
2022/09/04 02:48:39;;;;;;;105.15;10.65;;;;;;;18.68;100.00;98019.22;4967249;28;20034;-52
2022/09/04 02:51:26;;;;;;;67.05;9.07;;;;;;;19.71;100.00;98005.28;4967011;28;20126;-52
2022/09/04 02:54:05;;;;;;;80.38;10.20;;;;;;;19.61;100.00;98010.44;4967402;28;20068;-52
2022/09/04 02:57:08;;;;;;;78.32;10.32;;;;;;;19.39;100.00;98009.47;4969426;28;20158;-55
2022/09/04 03:00:24;;;;;;;116.10;10.82;;;;;;;19.18;100.00;98011.13;4970337;28;20057;-51
2022/09/04 03:03:13;;;;;;;142.38;11.25;;;;;;;19.81;100.00;98004.50;4946969;28;20047;-53
2022/09/04 03:06:17;;;;;;;162.40;11.73;;;;;;;19.80;100.00;98005.44;4968323;28;20061;-53
2022/09/04 03:08:49;;;;;;;195.63;12.93;;;;;;;19.58;100.00;98011.53;4969253;28;20035;-52
2022/09/04 03:11:22;;;;;;;117.38;10.77;;;;;;;19.75;100.00;98012.88;4967353;28;20542;-52
2022/09/04 03:14:11;;;;;;;139.25;10.35;;;;;;;18.97;100.00;98008.31;4968497;28;20643;-52
2022/09/04 03:16:41;;;;;;;164.93;10.40;;;;;;;19.05;100.00;98014.69;4968105;28;20050;-52
2022/09/04 03:19:35;;;;;;;183.70;12.30;;;;;;;19.20;100.00;98014.47;4983863;28;20038;-52
2022/09/04 03:22:26;;;;;;;104.85;10.32;;;;;;;19.19;100.00;98023.38;4967346;28;20038;-51
2022/09/04 03:25:33;;;;;;;92.13;10.25;;;;;;;19.13;100.00;98015.91;4956949;28;20053;-51
2022/09/04 03:28:00;;;;;;;106.22;10.77;;;;;;;18.23;100.00;98027.75;4924852;29;20055;-52
2022/09/04 03:30:27;;;;;;;92.25;9.93;;;;;;;19.01;100.00;98023.81;4959888;28;20460;-53
2022/09/04 03:33:04;;;;;;;95.53;10.60;;;;;;;18.65;100.00;98028.19;4967739;28;20093;-54
2022/09/04 03:35:58;;;;;;;57.17;8.70;;;;;;;18.56;100.00;98031.50;4968726;28;20157;-54
2022/09/04 03:38:39;;;;;;;90.72;10.15;;;;;;;18.48;100.00;98034.69;4967477;28;20417;-52
2022/09/04 03:41:25;;;;;;;67.93;10.25;;;;;;;19.22;100.00;98021.31;4966002;28;20035;-52
2022/09/04 03:43:56;;;;;;;76.57;9.80;;;;;;;19.06;100.00;98026.94;4968527;28;20038;-55
2022/09/04 03:46:49;;;;;;;52.85;9.23;;;;;;;18.03;100.00;98034.44;4968828;28;20055;-52
2022/09/04 03:49:29;;;;;;;78.60;9.98;;;;;;;18.77;100.00;98039.66;4968815;28;20030;-55
2022/09/04 03:52:37;;;;;;;64.50;9.95;;;;;;;18.67;100.00;98039.50;4965807;28;20070;-55
2022/09/04 03:55:05;;;;;;;127.60;11.38;;;;;;;18.94;100.00;98035.78;4924967;29;20099;-54
2022/09/04 03:57:37;;;;;;;158.40;11.05;;;;;;;18.32;100.00;98047.31;4929368;28;20134;-54
2022/09/04 04:00:18;;;;;;;160.30;10.32;;;;;;;18.68;100.00;98051.75;4950952;28;20083;-55
2022/09/04 04:03:14;;;;;;;118.65;10.27;;;;;;;17.49;100.00;98051.31;4972698;28;20054;-55
2022/09/04 04:06:04;;;;;;;98.47;11.35;;;;;;;18.52;100.00;98050.34;4970779;28;20077;-54
2022/09/04 04:08:44;;;;;;;101.05;9.63;;;;;;;18.39;100.00;98050.38;4971469;28;20034;-54
2022/09/04 04:11:37;;;;;;;46.58;8.98;;;;;;;18.48;100.00;98047.06;4973190;28;20035;-54
2022/09/04 04:14:34;;;;;;;43.80;9.02;;;;;;;19.13;100.00;98039.69;4970398;28;20073;-52
2022/09/04 04:17:32;;;;;;;76.80;9.48;;;;;;;19.19;100.00;98045.38;4970621;28;20188;-52
2022/09/04 04:20:43;;;;;;;38.58;7.47;;;;;;;19.15;100.00;98043.06;4972424;28;20734;-52
2022/09/04 04:23:38;;;;;;;43.08;6.78;;;;;;;19.66;100.00;98047.97;4970985;28;20039;-53
2022/09/04 04:26:06;;;;;;;41.65;7.57;;;;;;;19.20;100.00;98056.78;4969415;28;20062;-52
2022/09/04 04:28:58;;;;;;;63.58;9.27;;;;;;;19.10;100.00;98061.94;4970319;28;20031;-52
2022/09/04 04:32:09;;;;;;;62.75;9.98;;;;;;;19.05;100.00;98059.63;4970410;28;20080;-53
2022/09/04 04:35:00;;;;;;;51.72;9.55;;;;;;;19.02;100.00;98073.09;4972458;28;20026;-53
2022/09/04 04:37:34;;;;;;;50.90;8.68;;;;;;;19.48;100.00;98067.91;4971911;28;20169;-52
2022/09/04 04:40:31;;;;;;;51.40;7.55;;;;;;;19.13;100.00;98068.78;4971126;28;20050;-52
2022/09/04 04:43:17;;;;;;;41.38;8.63;;;;;;;19.21;100.00;98077.00;4971617;28;20456;-52
2022/09/04 04:46:15;;;;;;;49.40;9.23;;;;;;;18.62;100.00;98073.34;4965965;28;20055;-53
2022/09/04 04:49:21;;;;;;;47.10;8.43;;;;;;;17.92;100.00;98080.06;4969780;28;20027;-52
2022/09/04 04:52:17;;;;;;;42.92;7.72;;;;;;;17.66;100.00;98088.88;4970036;28;20164;-52
2022/09/04 04:55:29;;;;;;;41.33;7.97;;;;;;;18.65;100.00;98091.59;4972372;28;20027;-52
2022/09/04 04:58:04;;;;;;;45.58;8.30;;;;;;;19.00;100.00;98088.19;4971036;28;20050;-52
2022/09/04 05:01:08;;;;;;;38.38;6.93;;;;;;;18.90;100.00;98097.78;4969131;28;20559;-51
2022/09/04 05:03:50;;;;;;;34.08;6.65;;;;;;;19.79;100.00;98080.47;4970523;28;20092;-52
2022/09/04 05:06:30;;;;;;;37.92;6.55;;;;;;;19.94;100.00;98088.19;4970646;28;20069;-52
2022/09/04 05:09:13;;;;;;;49.53;7.78;;;;;;;19.64;100.00;98105.47;4968453;28;20034;-52
2022/09/04 05:11:44;;;;;;;28.92;5.85;;;;;;;19.75;100.00;98105.50;4972172;28;20045;-52
2022/09/04 05:14:47;;;;;;;37.00;6.75;;;;;;;20.11;100.00;98106.28;4970094;28;20043;-52
2022/09/04 05:17:49;;;;;;;33.15;6.30;;;;;;;20.22;100.00;98100.97;4969819;28;20043;-52
2022/09/04 05:20:46;;;;;;;36.65;6.15;;;;;;;20.29;100.00;98097.81;4984055;28;20026;-52
2022/09/04 05:23:32;;;;;;;38.60;6.78;;;;;;;20.26;100.00;98113.97;4968875;28;20027;-53
2022/09/04 05:26:15;;;;;;;41.33;6.55;;;;;;;21.19;100.00;98097.63;4969719;28;20074;-52
2022/09/04 05:28:41;;;;;;;35.15;6.07;;;;;;;21.09;100.00;98102.03;4971667;28;20935;-52
2022/09/04 05:31:11;;;;;;;49.95;7.38;;;;;;;20.40;100.00;98105.75;4967275;28;20046;-53
2022/09/04 05:34:01;;;;;;;26.42;5.38;;;;;;;20.62;100.00;98119.97;4971030;28;20111;-53
2022/09/04 05:36:44;;;;;;;31.13;6.15;;;;;;;18.96;100.00;98134.31;4967670;28;20070;-51
2022/09/04 05:39:31;;;;;;;34.60;6.30;;;;;;;22.04;100.00;98125.88;4967720;28;20030;-54
2022/09/04 05:42:15;;;;;;;36.90;5.85;;;;;;;22.48;100.00;98123.84;4968820;28;20790;-52
2022/09/04 05:44:57;;;;;;;28.90;5.20;;;;;;;23.07;100.00;98126.66;4971141;28;20073;-52
2022/09/04 05:47:28;;;;;;;;;;;;;;;23.01;100.00;98130.69;4970509;28;20054;-53
2022/09/04 05:50:21;;;;;;;36.13;5.75;;;;;;;23.01;100.00;98124.50;4970715;28;20382;-53
2022/09/04 05:53:08;;;;;;;27.52;5.38;;;;;;;22.89;100.00;98126.47;4968674;28;20404;-52
2022/09/04 05:55:58;;;;;;;30.52;5.47;;;;;;;21.89;100.00;98135.13;4968529;28;20031;-54
2022/09/04 05:58:54;;;;;;;32.92;5.82;;;;;;;22.08;100.00;98143.22;4969041;28;20037;-53
2022/09/04 06:01:49;;;;;;;39.10;6.47;;;;;;;21.85;100.00;98139.03;4969046;28;20125;-53
2022/09/04 06:04:42;;;;;;;31.38;6.00;;;;;;;21.60;100.00;98154.41;4968001;28;20034;-52
2022/09/04 06:07:15;;;;;;;27.63;5.55;;;;;;;22.80;100.00;98144.06;4969188;28;20742;-53
2022/09/04 06:09:50;;;;;;;29.98;6.00;;;;;;;21.15;100.00;98149.25;4969194;28;20065;-54
2022/09/04 06:12:45;;;;;;;32.00;5.65;;;;;;;22.44;100.00;98146.34;4968349;28;20042;-54
2022/09/04 06:15:26;;;;;;;32.15;6.15;;;;;;;22.06;100.00;98152.31;4968583;28;20038;-54
2022/09/04 06:18:11;;;;;;;30.83;5.90;;;;;;;23.37;100.00;98146.13;4969393;28;20648;-53
2022/09/04 06:20:51;;;;;;;36.58;6.45;;;;;;;23.55;100.00;98149.75;4967739;28;20049;-53
2022/09/04 06:23:28;;;;;;;32.70;6.00;;;;;;;22.20;100.00;98148.44;4971097;28;20038;-53
2022/09/04 06:26:14;;;;;;;25.33;5.72;;;;;;;23.16;100.00;98160.41;4969576;28;20038;-53
2022/09/04 06:29:00;;;;;;;29.10;5.45;;;;;;;23.45;100.00;98159.56;4969779;28;20029;-53
2022/09/04 06:31:25;;;;;;;31.50;6.28;;;;;;;23.22;100.00;98165.16;4967001;28;20061;-54
2022/09/04 06:34:28;;;;;;;30.63;6.03;;;;;;;22.68;100.00;98166.41;4970610;28;20073;-54
2022/09/04 06:37:28;;;;;;;30.60;5.95;;;;;;;22.66;100.00;98173.69;4968559;28;20035;-54
2022/09/04 06:40:27;;;;;;;33.00;6.63;;;;;;;21.04;100.00;98181.94;4970042;28;20496;-53
2022/09/04 06:43:04;;;;;;;32.05;6.07;;;;;;;22.86;100.00;98175.41;4968264;28;20130;-55
2022/09/04 06:45:40;;;;;;;31.85;6.68;;;;;;;22.86;100.00;98180.75;4969113;28;20053;-54
2022/09/04 06:48:44;;;;;;;25.67;5.93;;;;;;;22.79;100.00;98179.63;4970119;28;20027;-53
2022/09/04 06:51:22;;;;;;;31.75;6.65;;;;;;;22.80;100.00;98183.97;4969425;28;20074;-54
2022/09/04 06:54:06;;;;;;;31.77;6.60;;;;;;;22.58;100.00;98182.34;4967722;28;20732;-53
2022/09/04 06:56:54;;;;;;;21.00;5.47;;;;;;;23.61;100.00;98181.13;4969470;28;20050;-54
2022/09/04 06:59:31;;;;;;;28.10;5.93;;;;;;;24.11;100.00;98179.28;4968357;28;20027;-53
2022/09/04 07:02:18;;;;;;;34.38;6.43;;;;;;;24.02;100.00;98181.81;4967160;28;20081;-53
2022/09/04 07:05:08;;;;;;;29.45;5.90;;;;;;;23.69;100.00;98185.75;4967780;28;20098;-54
2022/09/04 07:07:51;;;;;;;31.58;6.28;;;;;;;25.17;100.00;98187.78;4968807;28;20062;-54
2022/09/04 07:10:25;;;;;;;26.65;5.50;;;;;;;25.65;100.00;98183.94;4966174;28;20526;-56
2022/09/04 07:13:12;;;;;;;29.98;5.85;;;;;;;26.25;100.00;98191.25;4983631;28;20202;-53
2022/09/04 07:16:04;;;;;;;25.63;5.20;;;;;;;27.47;100.00;98192.72;4968945;28;20145;-53
2022/09/04 07:18:54;;;;;;;28.17;5.90;;;;;;;25.98;100.00;98199.41;4969261;28;20130;-54
2022/09/04 07:21:38;;;;;;;22.77;5.50;;;;;;;29.20;100.00;98203.16;4967591;28;20598;-54
2022/09/04 07:24:31;;;;;;;26.23;6.07;;;;;;;28.52;100.00;98208.06;4969374;28;20034;-56
2022/09/04 07:27:11;;;;;;;21.73;5.28;;;;;;;26.79;100.00;98208.94;4967884;28;20055;-55
2022/09/04 07:30:00;;;;;;;20.38;5.25;;;;;;;24.76;100.00;98214.84;4984065;28;20018;-53
2022/09/04 07:33:03;;;;;;;21.38;5.75;;;;;;;26.41;100.00;98216.41;4971043;28;20134;-54
2022/09/04 07:35:50;;;;;;;23.90;5.65;;;;;;;27.24;100.00;98210.41;4973134;28;20641;-54
2022/09/04 07:38:33;;;;;;;33.10;6.25;;;;;;;27.67;100.00;98213.84;4973085;28;20022;-53
2022/09/04 07:41:09;;;;;;;26.55;5.95;;;;;;;28.06;100.00;98219.41;4972766;28;20042;-54
2022/09/04 07:43:56;;;;;;;20.27;5.30;;;;;;;26.84;100.00;98220.00;4973936;28;20023;-56
2022/09/04 07:46:40;;;;;;;27.17;6.18;;;;;;;26.05;100.00;98221.88;4971698;28;20053;-54
2022/09/04 07:49:31;;;;;;;35.85;6.95;;;;;;;27.78;100.00;98229.59;4971982;28;20019;-52
2022/09/04 07:52:06;;;;;;;25.73;5.88;;;;;;;27.71;100.00;98231.28;4968857;28;20505;-54
2022/09/04 07:55:23;;;;;;;25.52;5.85;;;;;;;28.84;100.00;98235.88;4969866;28;20056;-53
2022/09/04 07:58:07;;;;;;;28.35;5.93;;;;;;;29.54;100.00;98242.25;4969692;28;20069;-53
2022/09/04 08:00:50;;;;;;;28.65;6.05;;;;;;;27.58;100.00;98241.66;4971417;28;20042;-54
2022/09/04 08:03:27;;;;;;;25.63;5.22;;;;;;;29.57;100.00;98244.56;4972559;28;20113;-54
2022/09/04 08:06:13;;;;;;;21.95;4.88;;;;;;;28.37;100.00;98244.69;4970271;28;20605;-54
2022/09/04 08:09:03;;;;;;;28.02;5.85;;;;;;;29.88;99.80;98251.75;4971687;28;20026;-52
2022/09/04 08:12:04;;;;;;;24.13;5.40;;;;;;;28.36;100.00;98251.03;4972336;28;20117;-53
2022/09/04 08:14:36;;;;;;;23.98;5.63;;;;;;;29.63;100.00;98262.69;4971764;28;20482;-53
2022/09/04 08:17:04;;;;;;;;;;;;;;;31.80;86.89;98268.13;4973589;28;20042;-53
2022/09/04 08:19:44;;;;;;;18.58;4.95;;;;;;;34.31;71.22;98276.09;4971899;28;20505;-53
2022/09/04 08:22:15;;;;;;;17.15;4.97;;;;;;;31.30;79.56;98268.81;4972213;28;20046;-54
2022/09/04 08:24:59;;;;;;;;;;;;;;;32.58;83.49;98276.31;4970761;28;20111;-53
2022/09/04 08:28:07;;;;;;;16.42;4.30;;;;;;;35.12;67.93;98267.59;4968157;28;19925;-53
2022/09/04 08:30:52;;;;;;;16.08;4.43;;;;;;;37.23;61.75;98271.88;4951333;28;20042;-53
2022/09/04 08:33:17;;;;;;;16.35;3.92;;;;;;;38.23;57.65;98272.34;4971562;28;20037;-53
2022/09/04 08:36:00;;;;;;;15.50;4.38;;;;;;;35.62;58.24;98263.41;4969191;28;20042;-53
2022/09/04 08:38:44;;;;;;;15.65;4.50;;;;;;;36.16;58.79;98267.47;4969037;28;20449;-53
2022/09/04 08:41:31;;;;;;;15.05;4.30;;;;;;;34.98;56.63;98263.28;4969967;28;20097;-53
2022/09/04 08:44:15;;;;;;;12.70;3.92;;;;;;;33.47;64.08;98278.22;4970340;28;20028;-52
2022/09/04 08:47:05;;;;;;;16.95;4.68;;;;;;;32.91;63.15;98270.28;4969666;28;20057;-55
2022/09/04 08:50:08;;;;;;;14.15;3.90;;;;;;;33.98;61.33;98266.88;4969328;28;20117;-54
2022/09/04 08:52:52;;;;;;;16.75;4.43;;;;;;;34.72;56.28;98270.47;4969607;28;20035;-54
2022/09/04 08:55:45;;;;;;;17.58;4.68;;;;;;;33.94;60.37;98270.22;4968823;28;20029;-53
2022/09/04 08:58:42;;;;;;;11.02;3.90;;;;;;;34.94;57.71;98272.88;4969304;28;20043;-53
2022/09/04 09:01:13;;;;;;;19.02;4.65;;;;;;;35.69;54.74;98272.38;4968094;28;20038;-54
2022/09/04 09:03:58;;;;;;;16.08;4.20;;;;;;;37.95;47.16;98268.38;4969360;28;20045;-54
2022/09/04 09:07:02;;;;;;;18.42;5.03;;;;;;;34.17;56.14;98265.28;4969405;28;20102;-55
2022/09/04 09:09:45;;;;;;;19.63;4.68;;;;;;;36.24;51.36;98269.09;4971122;28;20030;-56
2022/09/04 09:12:39;;;;;;;10.45;3.28;;;;;;;34.23;49.17;98263.63;4970445;28;20038;-55
2022/09/04 09:15:33;;;;;;;13.70;3.65;;;;;;;38.65;42.50;98261.38;4970652;28;20026;-55
2022/09/04 09:18:01;;;;;;;10.38;3.10;;;;;;;34.69;48.53;98251.91;4972601;28;20047;-54
2022/09/04 09:20:38;;;;;;;16.73;3.65;;;;;;;37.45;44.54;98257.78;4970964;28;20497;-56
2022/09/04 09:23:29;;;;;;;12.27;3.10;;;;;;;35.67;49.19;98247.31;4970293;28;20039;-55
2022/09/04 09:26:17;;;;;;;12.27;3.30;;;;;;;35.37;51.08;98247.94;4968538;28;20124;-55
2022/09/04 09:29:21;;;;;;;11.45;3.20;;;;;;;35.82;47.17;98256.00;4970923;28;20030;-54
2022/09/04 09:32:06;;;;;;;11.65;3.13;;;;;;;37.13;46.56;98260.66;4983200;28;20042;-53
2022/09/04 09:35:07;;;;;;;14.63;3.67;;;;;;;35.06;49.40;98256.81;4971233;28;20081;-52
2022/09/04 09:38:07;;;;;;;17.27;3.95;;;;;;;34.25;49.59;98264.22;4970351;28;20031;-54
2022/09/04 09:40:59;;;;;;;14.35;3.50;;;;;;;35.21;50.90;98261.97;4967350;28;20420;-56
2022/09/04 09:43:50;;;;;;;15.88;3.85;;;;;;;35.52;50.11;98253.88;4973040;28;20035;-53
2022/09/04 09:46:21;;;;;;;17.00;4.07;;;;;;;34.27;49.36;98259.44;4972226;28;20121;-53
2022/09/04 09:49:32;;;;;;;21.77;4.38;;;;;;;37.07;46.57;98261.59;4969277;28;20033;-53
2022/09/04 09:52:20;;;;;;;16.70;3.60;;;;;;;36.43;46.40;98253.66;4965920;28;20495;-54
2022/09/04 09:54:58;;;;;;;23.77;4.47;;;;;;;39.11;40.69;98260.47;4967669;28;20085;-54
2022/09/04 09:57:51;;;;;;;15.88;3.70;;;;;;;36.83;45.66;98250.56;4981344;28;20263;-53
2022/09/04 10:00:24;;;;;;;16.13;3.45;;;;;;;35.54;49.24;98255.56;4983513;28;20117;-53
2022/09/04 10:03:00;;;;;;;18.27;4.10;;;;;;;37.40;44.26;98258.47;4970255;28;20018;-53
2022/09/04 10:05:46;;;;;;;16.08;3.50;;;;;;;35.95;43.73;98260.50;4967503;28;20551;-53
2022/09/04 10:08:33;;;;;;;15.48;3.40;;;;;;;37.09;42.47;98254.03;4969223;28;20030;-53
2022/09/04 10:11:22;;;;;;;21.10;4.18;;;;;;;35.75;44.93;98252.53;4967926;28;20053;-53
2022/09/04 10:14:09;;;;;;;20.92;4.10;;;;;;;36.07;44.64;98253.31;4967214;28;20026;-53
2022/09/04 10:17:03;;;;;;;16.67;3.47;;;;;;;34.66;47.41;98246.88;4968676;28;20042;-54
2022/09/04 10:19:46;;;;;;;14.70;3.33;;;;;;;36.69;41.99;98254.47;4970821;28;20481;-53
2022/09/04 10:22:51;;;;;;;17.45;3.50;;;;;;;34.88;45.53;98243.94;4969803;28;20053;-53
2022/09/04 10:25:22;;;;;;;15.60;3.35;;;;;;;35.83;42.64;98244.13;4958768;28;20042;-56
2022/09/04 10:28:25;;;;;;;18.33;3.90;;;;;;;36.07;43.72;98250.59;4967307;28;20026;-55
2022/09/04 10:31:15;;;;;;;24.05;4.45;;;;;;;34.69;45.50;98246.50;4963532;28;20130;-54
2022/09/04 10:34:25;;;;;;;12.20;3.10;;;;;;;33.93;48.00;98244.19;4968472;28;20034;-53
2022/09/04 10:37:25;;;;;;;23.02;4.43;;;;;;;35.38;44.69;98240.63;4969764;28;20043;-54
2022/09/04 10:43:24;;;;;;;16.83;3.63;;;;;;;36.16;44.76;98234.06;4967958;28;20455;-55
2022/09/04 10:46:07;;;;;;;17.55;3.50;;;;;;;36.35;47.27;98238.50;4969668;28;20066;-54
2022/09/04 10:48:41;;;;;;;16.10;3.40;;;;;;;36.89;47.14;98238.81;4970949;28;20088;-55
2022/09/04 10:51:34;;;;;;;18.88;3.88;;;;;;;34.21;46.66;98233.22;4968903;28;20078;-54
2022/09/04 10:54:15;;;;;;;16.55;3.63;;;;;;;35.14;45.34;98229.44;4967952;28;20030;-54
2022/09/04 10:57:02;;;;;;;14.82;3.33;;;;;;;37.12;42.65;98231.81;4969870;28;20039;-55
2022/09/04 11:00:03;;;;;;;20.35;3.95;;;;;;;37.35;43.25;98229.25;4969962;28;20030;-54
2022/09/04 11:03:01;;;;;;;18.27;3.55;;;;;;;35.92;42.15;98228.41;4968550;28;20166;-55
2022/09/04 11:06:01;;;;;;;20.88;3.85;;;;;;;35.30;43.04;98226.25;4967717;28;20043;-53
2022/09/04 11:08:50;;;;;;;23.13;4.32;;;;;;;33.11;46.20;98227.97;4974016;28;20057;-54
2022/09/04 11:11:46;;;;;;;19.52;3.92;;;;;;;33.44;46.82;98216.44;4973549;28;20034;-56
2022/09/04 11:14:48;;;;;;;13.88;2.92;;;;;;;35.03;45.12;98214.69;4973930;28;20077;-56
2022/09/04 11:17:33;;;;;;;17.55;3.22;;;;;;;36.16;42.42;98217.75;4973579;28;20054;-54
2022/09/04 11:20:52;;;;;;;20.08;3.50;;;;;;;34.79;44.37;98210.00;4972844;28;21131;-53
2022/09/04 11:23:36;;;;;;;19.60;3.72;;;;;;;33.27;46.87;98207.03;4941503;28;20787;-54
2022/09/04 11:26:21;;;;;;;14.68;2.63;;;;;;;33.17;44.91;98200.13;4968610;28;20046;-53
2022/09/04 11:29:11;;;;;;;19.75;3.72;;;;;;;35.32;45.26;98204.34;4972231;28;20022;-53
2022/09/04 11:31:39;;;;;;;19.00;3.58;;;;;;;34.40;47.12;98207.16;4971256;28;20043;-53
2022/09/04 11:34:39;;;;;;;14.95;3.33;;;;;;;33.91;48.50;98216.53;4968809;28;20117;-53
2022/09/04 11:37:42;;;;;;;14.40;2.92;;;;;;;34.81;46.64;98210.59;4973037;28;20063;-53
2022/09/04 11:40:26;;;;;;;15.80;3.08;;;;;;;34.01;48.76;98214.25;4971004;28;20035;-57
2022/09/04 11:43:07;;;;;;;17.35;3.33;;;;;;;31.72;54.28;98215.16;4973017;28;20085;-53
2022/09/04 11:46:25;;;;;;;21.27;3.53;;;;;;;31.81;56.65;98216.69;4973626;28;20981;-54
2022/09/04 11:49:15;;;;;;;25.33;4.47;;;;;;;33.75;51.53;98210.50;4974003;28;20416;-53
2022/09/04 11:51:44;;;;;;;16.40;3.28;;;;;;;30.92;53.68;98212.41;4986102;28;20788;-53
2022/09/04 11:54:28;;;;;;;17.20;3.25;;;;;;;31.89;51.78;98219.25;4968877;28;20035;-53
2022/09/04 11:57:24;;;;;;;22.75;4.07;;;;;;;32.92;55.69;98223.28;4971795;28;20053;-52
2022/09/04 12:00:10;;;;;;;23.73;4.13;;;;;;;31.73;56.05;98216.00;4970147;28;20034;-53
2022/09/04 12:03:01;;;;;;;16.73;3.13;;;;;;;32.34;55.42;98221.69;4986436;28;20051;-53
2022/09/04 12:05:49;;;;;;;22.95;3.95;;;;;;;30.68;56.69;98212.69;4973979;28;20085;-53
2022/09/04 12:08:23;;;;;;;22.83;3.90;;;;;;;31.36;55.88;98215.16;4972315;28;20149;-54
2022/09/04 12:11:07;;;;;;;21.40;3.88;;;;;;;31.19;54.86;98218.13;4968714;28;20033;-53
2022/09/04 12:13:42;;;;;;;19.25;3.80;;;;;;;31.97;53.93;98220.16;4970509;28;20041;-53
2022/09/04 12:16:26;;;;;;;22.60;4.05;;;;;;;32.84;51.57;98218.91;4973521;28;20856;-54
2022/09/04 12:19:00;;;;;;;25.27;4.10;;;;;;;32.17;53.02;98212.25;4972389;28;20038;-52
2022/09/04 12:21:41;;;;;;;23.38;3.90;;;;;;;33.08;51.48;98217.53;4970744;28;20054;-54
2022/09/04 12:24:34;;;;;;;23.30;4.18;;;;;;;32.92;50.20;98217.88;4970609;28;20433;-52
2022/09/04 12:27:18;;;;;;;29.15;5.03;;;;;;;30.54;53.93;98212.47;4972136;28;20101;-54
2022/09/04 12:30:24;;;;;;;20.23;3.70;;;;;;;31.25;52.55;98211.97;4970087;28;20026;-53
2022/09/04 12:33:28;;;;;;;19.73;3.42;;;;;;;31.75;50.98;98205.84;4972043;28;20097;-52
2022/09/04 12:36:33;;;;;;;23.17;4.03;;;;;;;31.38;51.71;98202.34;4969585;28;20035;-55
2022/09/04 12:39:17;;;;;;;24.80;4.15;;;;;;;30.75;50.87;98200.13;4939199;28;20588;-52
2022/09/04 12:42:06;;;;;;;17.70;3.40;;;;;;;32.41;50.66;98216.34;4948699;28;20122;-53
2022/09/04 12:44:53;;;;;;;18.88;3.35;;;;;;;32.69;51.04;98207.41;4965299;28;20038;-55
2022/09/04 12:47:57;;;;;;;27.60;4.25;;;;;;;32.75;53.50;98215.53;4971464;28;20042;-53
2022/09/04 12:50:38;;;;;;;19.85;3.40;;;;;;;32.57;51.68;98209.78;4971619;28;20054;-54